Time;durP1;ratioP1;P1;durP2;ratioP2;P2;SDS_P1;SDS_P2;PMS_P1;PMS_P2;Temp;Humidity;BMP_temperature;BMP_pressure;BME280_temperature;BME280_humidity;BME280_pressure;Samples;Min_cycle;Max_cycle;Signal;HPM_P1;HPM_P2
2021/01/01 00:00:05;;;;;;;71.70;44.00;;;;;;;;;;2068845;28;20639;-59
2021/01/01 00:01:05;;;;;;;65.73;41.57;;;;;;;;;;2073250;28;20204;-58
2021/01/01 00:02:05;;;;;;;67.83;44.17;;;;;;;;;;2072897;28;20211;-59
2021/01/01 00:03:06;;;;;;;68.63;45.27;;;;;;;;;;2058864;28;20205;-59
2021/01/01 00:04:06;;;;;;;66.97;43.70;;;;;;;;;;2079914;28;20648;-59
2021/01/01 00:05:07;;;;;;;69.00;44.13;;;;;;;;;;2089162;28;20231;-57
2021/01/01 00:06:11;;;;;;;65.10;42.30;;;;;;;;;;2089036;28;20199;-58
2021/01/01 00:07:12;;;;;;;73.13;45.47;;;;;;;;;;2082752;28;20186;-59
2021/01/01 00:08:12;;;;;;;69.07;45.07;;;;;;;;;;2074814;28;20260;-58
2021/01/01 00:09:13;;;;;;;79.17;47.50;;;;;;;;;;2069142;28;20180;-54
2021/01/01 00:10:13;;;;;;;73.30;48.03;;;;;;;;;;2078230;28;20184;-62
2021/01/01 00:11:14;;;;;;;75.47;49.63;;;;;;;;;;2078669;28;20234;-59
2021/01/01 00:12:15;;;;;;;70.07;46.40;;;;;;;;;;2077534;28;20247;-58
2021/01/01 00:13:15;;;;;;;69.20;47.73;;;;;;;;;;2081101;28;20268;-59
2021/01/01 00:14:16;;;;;;;80.53;51.47;;;;;;;;;;2083993;28;20219;-57
2021/01/01 00:15:16;;;;;;;72.97;47.23;;;;;;;;;;2072730;28;20200;-57
2021/01/01 00:16:16;;;;;;;79.57;50.57;;;;;;;;;;2063533;28;20197;-59
2021/01/01 00:17:16;;;;;;;76.10;48.40;;;;;;;;;;2077771;28;20219;-59
2021/01/01 00:18:17;;;;;;;76.30;50.30;;;;;;;;;;2074881;28;20180;-57
2021/01/01 00:19:17;;;;;;;75.30;49.27;;;;;;;;;;2083583;28;20184;-59
2021/01/01 00:20:17;;;;;;;74.60;49.47;;;;;;;;;;2083527;28;20184;-57
2021/01/01 00:21:17;;;;;;;76.90;49.57;;;;;;;;;;2074819;28;20216;-56
2021/01/01 00:22:18;;;;;;;72.57;46.93;;;;;;;;;;2065051;28;20181;-59
2021/01/01 00:23:18;;;;;;;75.17;48.43;;;;;;;;;;2076228;28;20168;-55
2021/01/01 00:24:18;;;;;;;71.97;45.70;;;;;;;;;;2082904;28;20187;-57
2021/01/01 00:25:18;;;;;;;68.80;45.57;;;;;;;;;;2078687;28;20251;-58
2021/01/01 00:26:19;;;;;;;71.23;47.37;;;;;;;;;;2064965;28;20212;-59
2021/01/01 00:27:19;;;;;;;74.83;46.37;;;;;;;;;;2064302;28;20221;-59
2021/01/01 00:28:19;;;;;;;71.17;46.77;;;;;;;;;;2072039;28;20267;-57
2021/01/01 00:29:21;;;;;;;72.17;45.93;;;;;;;;;;2081676;28;20204;-57
2021/01/01 00:30:21;;;;;;;68.60;46.47;;;;;;;;;;2081648;28;20204;-60
2021/01/01 00:31:22;;;;;;;68.30;45.77;;;;;;;;;;2075188;28;20184;-59
2021/01/01 00:32:23;;;;;;;70.93;43.33;;;;;;;;;;2072489;28;20276;-57
2021/01/01 00:33:23;;;;;;;74.73;45.87;;;;;;;;;;2087526;28;20187;-57
2021/01/01 00:34:23;;;;;;;73.30;46.53;;;;;;;;;;2081619;28;20640;-59
2021/01/01 00:35:24;;;;;;;75.07;49.70;;;;;;;;;;2083880;28;20183;-57
2021/01/01 00:36:24;;;;;;;73.13;47.47;;;;;;;;;;2078587;28;20215;-56
2021/01/01 00:37:24;;;;;;;69.57;45.20;;;;;;;;;;2074780;28;20181;-58
2021/01/01 00:38:24;;;;;;;69.67;46.10;;;;;;;;;;2080316;28;20236;-56
2021/01/01 00:39:25;;;;;;;71.63;46.00;;;;;;;;;;2089441;28;20235;-58
2021/01/01 00:40:25;;;;;;;70.10;47.37;;;;;;;;;;2083505;28;20188;-60
2021/01/01 00:41:27;;;;;;;73.93;48.27;;;;;;;;;;2076850;28;20964;-60
2021/01/01 00:42:27;;;;;;;74.60;46.10;;;;;;;;;;2079026;28;20791;-59
2021/01/01 00:43:27;;;;;;;68.87;46.10;;;;;;;;;;2072687;28;20215;-59
2021/01/01 00:44:28;;;;;;;74.07;47.53;;;;;;;;;;2077358;28;20216;-58
2021/01/01 00:45:28;;;;;;;76.63;46.80;;;;;;;;;;2085590;28;20178;-58
2021/01/01 00:46:28;;;;;;;74.97;48.30;;;;;;;;;;2077521;28;20209;-59
2021/01/01 00:47:29;;;;;;;70.90;46.43;;;;;;;;;;2079660;28;20220;-57
2021/01/01 00:48:29;;;;;;;75.83;48.90;;;;;;;;;;2066953;28;20588;-54
2021/01/01 00:49:30;;;;;;;71.97;43.83;;;;;;;;;;2075528;28;20192;-57
2021/01/01 00:50:30;;;;;;;71.10;44.53;;;;;;;;;;2081097;28;20271;-58
2021/01/01 00:51:31;;;;;;;77.27;47.60;;;;;;;;;;2080289;28;20227;-55
2021/01/01 00:52:31;;;;;;;76.80;47.93;;;;;;;;;;2070448;28;20177;-56
2021/01/01 00:53:32;;;;;;;81.07;51.10;;;;;;;;;;2081082;28;20192;-56
2021/01/01 00:54:32;;;;;;;74.00;47.80;;;;;;;;;;2083015;28;20245;-56
2021/01/01 00:55:32;;;;;;;77.30;48.87;;;;;;;;;;2087773;28;20547;-56
2021/01/01 00:56:32;;;;;;;83.77;52.87;;;;;;;;;;2087549;28;20675;-56
2021/01/01 00:57:33;;;;;;;85.27;52.13;;;;;;;;;;2082435;28;20171;-53
2021/01/01 00:58:33;;;;;;;85.03;53.47;;;;;;;;;;2090046;28;20190;-57
2021/01/01 00:59:33;;;;;;;78.03;51.40;;;;;;;;;;2083082;28;20200;-60
2021/01/01 01:00:33;;;;;;;87.80;53.13;;;;;;;;;;2071980;28;20177;-57
2021/01/01 01:01:34;;;;;;;86.83;53.60;;;;;;;;;;2079377;28;20204;-56
2021/01/01 01:02:34;;;;;;;82.23;51.63;;;;;;;;;;2080601;28;20172;-56
2021/01/01 01:03:34;;;;;;;80.03;49.83;;;;;;;;;;2079055;28;20228;-57
2021/01/01 01:04:35;;;;;;;80.80;51.93;;;;;;;;;;2083282;28;20184;-58
2021/01/01 01:05:35;;;;;;;86.90;51.97;;;;;;;;;;2076022;28;20180;-60
2021/01/01 01:06:35;;;;;;;83.60;51.00;;;;;;;;;;2071662;28;20194;-59
2021/01/01 01:07:36;;;;;;;79.07;50.33;;;;;;;;;;2078658;28;20259;-60
2021/01/01 01:08:36;;;;;;;81.23;49.20;;;;;;;;;;2075996;28;20169;-62
2021/01/01 01:09:36;;;;;;;89.70;55.87;;;;;;;;;;2073389;28;20197;-56
2021/01/01 01:10:36;;;;;;;82.77;49.70;;;;;;;;;;2083712;28;20585;-59
2021/01/01 01:11:37;;;;;;;83.30;49.13;;;;;;;;;;2076919;28;20257;-58
2021/01/01 01:12:37;;;;;;;76.77;47.77;;;;;;;;;;2075520;28;20276;-58
2021/01/01 01:13:37;;;;;;;84.73;49.10;;;;;;;;;;2078804;28;20231;-59
2021/01/01 01:14:37;;;;;;;78.53;48.97;;;;;;;;;;2085215;28;20649;-58
2021/01/01 01:15:38;;;;;;;76.70;49.13;;;;;;;;;;2084587;28;20211;-57
2021/01/01 01:16:38;;;;;;;80.27;48.77;;;;;;;;;;2092211;28;20694;-59
2021/01/01 01:17:39;;;;;;;80.47;49.63;;;;;;;;;;2078713;28;20185;-59
2021/01/01 01:18:39;;;;;;;83.93;51.60;;;;;;;;;;2092905;28;20281;-59
2021/01/01 01:19:40;;;;;;;83.17;50.83;;;;;;;;;;2072463;28;20170;-59
2021/01/01 01:20:41;;;;;;;78.33;49.17;;;;;;;;;;2071621;28;20185;-59
2021/01/01 01:21:41;;;;;;;82.83;51.93;;;;;;;;;;2079059;28;20173;-59
2021/01/01 01:22:41;;;;;;;82.60;50.47;;;;;;;;;;2082224;28;20582;-61
2021/01/01 01:23:41;;;;;;;80.80;49.57;;;;;;;;;;2086765;28;20494;-61
2021/01/01 01:24:42;;;;;;;80.73;50.17;;;;;;;;;;2092190;28;20176;-60
2021/01/01 01:25:42;;;;;;;82.20;50.13;;;;;;;;;;2094203;28;20175;-58
2021/01/01 01:26:42;;;;;;;80.53;48.63;;;;;;;;;;2085070;28;20192;-57
2021/01/01 01:27:42;;;;;;;88.10;52.33;;;;;;;;;;2093846;28;20171;-60
2021/01/01 01:28:43;;;;;;;84.60;50.43;;;;;;;;;;2084779;28;20192;-62
2021/01/01 01:29:43;;;;;;;92.70;54.57;;;;;;;;;;2093617;28;20189;-59
2021/01/01 01:30:43;;;;;;;89.10;52.47;;;;;;;;;;2083110;28;20273;-60
2021/01/01 01:31:44;;;;;;;90.93;54.80;;;;;;;;;;2092925;28;20176;-57
2021/01/01 01:32:44;;;;;;;88.07;53.20;;;;;;;;;;2074331;28;20249;-58
2021/01/01 01:33:45;;;;;;;95.83;55.57;;;;;;;;;;2075174;28;20196;-59
2021/01/01 01:34:45;;;;;;;94.97;56.60;;;;;;;;;;2060800;28;20189;-57
2021/01/01 01:35:45;;;;;;;103.73;57.07;;;;;;;;;;2067455;28;20256;-60
2021/01/01 01:36:45;;;;;;;92.03;55.43;;;;;;;;;;2060474;28;20197;-57
2021/01/01 01:37:46;;;;;;;99.57;58.70;;;;;;;;;;2083782;28;20172;-60
2021/01/01 01:38:46;;;;;;;103.27;59.97;;;;;;;;;;2081593;28;20165;-58
2021/01/01 01:39:46;;;;;;;94.77;56.20;;;;;;;;;;2093397;28;20178;-57
2021/01/01 01:40:47;;;;;;;95.60;56.07;;;;;;;;;;2075836;28;20173;-59
2021/01/01 01:41:47;;;;;;;106.30;60.53;;;;;;;;;;2077185;28;20173;-58
2021/01/01 01:42:48;;;;;;;106.57;61.43;;;;;;;;;;2078589;28;20188;-59
2021/01/01 01:43:48;;;;;;;111.47;60.63;;;;;;;;;;2083337;28;20192;-59
2021/01/01 01:44:48;;;;;;;107.97;61.97;;;;;;;;;;2068499;28;20232;-60
2021/01/01 01:45:49;;;;;;;109.80;64.10;;;;;;;;;;2075034;28;20668;-57
2021/01/01 01:46:50;;;;;;;109.27;62.10;;;;;;;;;;2070345;28;20264;-61
2021/01/01 01:47:51;;;;;;;116.13;65.13;;;;;;;;;;2078067;28;20189;-60
2021/01/01 01:48:51;;;;;;;112.07;64.53;;;;;;;;;;2089703;28;20416;-58
2021/01/01 01:49:52;;;;;;;113.17;61.83;;;;;;;;;;2087053;28;20531;-58
2021/01/01 01:50:53;;;;;;;102.93;60.50;;;;;;;;;;2086227;28;20572;-59
2021/01/01 01:51:54;;;;;;;107.20;61.40;;;;;;;;;;2092889;28;20183;-58
2021/01/01 01:52:55;;;;;;;108.13;62.30;;;;;;;;;;2088558;28;20167;-56
2021/01/01 01:53:56;;;;;;;105.97;62.20;;;;;;;;;;2084701;28;20206;-57
2021/01/01 01:54:57;;;;;;;107.97;59.70;;;;;;;;;;2091950;28;20176;-56
2021/01/01 01:55:58;;;;;;;105.87;58.50;;;;;;;;;;2078705;28;20296;-60
2021/01/01 01:56:58;;;;;;;102.60;57.53;;;;;;;;;;2083947;28;20171;-60
2021/01/01 01:57:59;;;;;;;99.13;56.53;;;;;;;;;;2077133;28;20244;-59
2021/01/01 01:59:00;;;;;;;94.73;55.13;;;;;;;;;;2069165;28;20205;-56
2021/01/01 02:00:09;;;;;;;93.43;54.67;;;;;;;;;;2072278;28;20194;-58
2021/01/01 02:01:11;;;;;;;99.57;53.50;;;;;;;;;;2079625;28;20180;-57
2021/01/01 02:02:11;;;;;;;84.33;49.60;;;;;;;;;;2074917;28;20177;-57
2021/01/01 02:03:15;;;;;;;91.67;51.80;;;;;;;;;;2078103;28;20413;-57
2021/01/01 02:04:15;;;;;;;89.00;50.90;;;;;;;;;;2084028;28;20186;-58
2021/01/01 02:05:16;;;;;;;79.47;49.77;;;;;;;;;;2080427;28;20428;-57
2021/01/01 02:06:17;;;;;;;84.23;49.13;;;;;;;;;;2077765;28;20656;-58
2021/01/01 02:07:18;;;;;;;79.53;49.27;;;;;;;;;;2078430;28;20200;-58
2021/01/01 02:08:19;;;;;;;79.33;48.67;;;;;;;;;;2087587;28;20187;-57
2021/01/01 02:09:19;;;;;;;79.03;48.60;;;;;;;;;;2087122;28;20184;-56
2021/01/01 02:10:20;;;;;;;75.07;46.90;;;;;;;;;;2085190;28;20180;-62
2021/01/01 02:11:21;;;;;;;78.73;47.23;;;;;;;;;;2084586;28;20620;-59
2021/01/01 02:12:22;;;;;;;75.87;46.77;;;;;;;;;;2087804;28;20201;-59
2021/01/01 02:13:23;;;;;;;75.77;47.70;;;;;;;;;;2082970;28;20190;-57
2021/01/01 02:14:23;;;;;;;83.63;46.43;;;;;;;;;;2081912;28;20202;-58
2021/01/01 02:15:25;;;;;;;77.23;42.77;;;;;;;;;;2087705;28;20625;-59
2021/01/01 02:16:26;;;;;;;79.03;48.37;;;;;;;;;;2083903;28;20210;-56
2021/01/01 02:17:27;;;;;;;77.57;45.57;;;;;;;;;;2080323;28;20467;-55
2021/01/01 02:18:33;;;;;;;68.80;43.50;;;;;;;;;;2077881;28;20165;-56
2021/01/01 02:19:33;;;;;;;75.47;44.97;;;;;;;;;;2088704;28;20229;-57
2021/01/01 02:20:33;;;;;;;77.43;45.27;;;;;;;;;;2074468;28;20223;-58
2021/01/01 02:21:33;;;;;;;70.93;43.57;;;;;;;;;;2072820;28;20233;-55
2021/01/01 02:22:40;;;;;;;68.47;42.53;;;;;;;;;;2077346;28;20185;-57
2021/01/01 02:23:41;;;;;;;66.80;42.40;;;;;;;;;;2085051;28;20176;-57
2021/01/01 02:24:41;;;;;;;66.27;41.40;;;;;;;;;;2077886;28;20258;-57
2021/01/01 02:25:42;;;;;;;68.90;41.77;;;;;;;;;;2085303;28;20534;-56
2021/01/01 02:26:42;;;;;;;68.27;42.50;;;;;;;;;;2084990;28;20202;-56
2021/01/01 02:27:42;;;;;;;67.37;42.07;;;;;;;;;;2088316;28;20186;-59
2021/01/01 02:28:43;;;;;;;65.97;41.47;;;;;;;;;;2079119;28;20234;-57
2021/01/01 02:29:43;;;;;;;71.43;43.67;;;;;;;;;;2081063;28;20246;-56
2021/01/01 02:30:43;;;;;;;69.63;42.77;;;;;;;;;;2082104;28;20181;-58
2021/01/01 02:31:43;;;;;;;72.30;44.33;;;;;;;;;;2090425;28;20175;-57
2021/01/01 02:32:44;;;;;;;65.57;42.70;;;;;;;;;;2075340;28;20184;-58
2021/01/01 02:33:44;;;;;;;70.77;43.07;;;;;;;;;;2081662;28;20230;-57
2021/01/01 02:34:44;;;;;;;65.47;41.17;;;;;;;;;;2072750;28;20185;-58
2021/01/01 02:35:45;;;;;;;65.10;40.97;;;;;;;;;;2082784;28;20239;-58
2021/01/01 02:36:45;;;;;;;66.50;39.83;;;;;;;;;;2082545;28;20212;-59
2021/01/01 02:37:45;;;;;;;64.23;40.10;;;;;;;;;;2084366;28;20189;-55
2021/01/01 02:38:46;;;;;;;69.83;42.30;;;;;;;;;;2077696;28;20646;-58
2021/01/01 02:39:47;;;;;;;68.33;41.13;;;;;;;;;;2091694;28;20195;-57
2021/01/01 02:40:47;;;;;;;61.43;38.83;;;;;;;;;;2076077;28;20258;-57
2021/01/01 02:41:47;;;;;;;64.10;39.30;;;;;;;;;;2078339;28;20175;-59
2021/01/01 02:42:47;;;;;;;65.13;40.93;;;;;;;;;;2077040;28;20175;-58
2021/01/01 02:43:48;;;;;;;66.87;39.50;;;;;;;;;;2075751;28;20180;-58
2021/01/01 02:44:48;;;;;;;65.50;41.43;;;;;;;;;;2067919;28;20606;-58
2021/01/01 02:45:48;;;;;;;64.13;39.10;;;;;;;;;;2081982;28;20176;-57
2021/01/01 02:46:49;;;;;;;63.73;40.40;;;;;;;;;;2084188;28;20184;-57
2021/01/01 02:47:49;;;;;;;59.97;38.23;;;;;;;;;;2075621;28;20177;-56
2021/01/01 02:48:49;;;;;;;61.20;37.40;;;;;;;;;;2079229;28;20719;-57
2021/01/01 02:49:49;;;;;;;65.87;38.87;;;;;;;;;;2080584;28;20638;-58
2021/01/01 02:50:50;;;;;;;62.67;38.53;;;;;;;;;;2072968;28;20175;-58
2021/01/01 02:51:50;;;;;;;56.60;36.87;;;;;;;;;;2075852;28;20177;-57
2021/01/01 02:52:50;;;;;;;57.37;37.90;;;;;;;;;;2084806;28;20180;-56
2021/01/01 02:53:51;;;;;;;57.03;38.13;;;;;;;;;;2087480;28;20175;-55
2021/01/01 02:54:51;;;;;;;59.83;38.27;;;;;;;;;;2084411;28;20183;-56
2021/01/01 02:55:51;;;;;;;61.03;38.60;;;;;;;;;;2084132;28;20292;-56
2021/01/01 02:56:52;;;;;;;62.07;39.53;;;;;;;;;;2082836;28;20161;-58
2021/01/01 02:57:52;;;;;;;57.40;34.60;;;;;;;;;;2069693;28;20666;-59
2021/01/01 02:58:52;;;;;;;54.47;35.40;;;;;;;;;;2081312;28;20574;-57
2021/01/01 02:59:52;;;;;;;55.70;37.73;;;;;;;;;;2075972;28;20189;-58
2021/01/01 03:00:52;;;;;;;54.93;34.70;;;;;;;;;;2080555;28;20270;-57
2021/01/01 03:01:53;;;;;;;55.30;35.93;;;;;;;;;;2084659;28;20216;-59
2021/01/01 03:02:54;;;;;;;54.00;35.70;;;;;;;;;;2077099;28;20256;-57
2021/01/01 03:03:54;;;;;;;58.53;37.53;;;;;;;;;;2064993;28;20766;-58
2021/01/01 03:04:54;;;;;;;57.77;36.93;;;;;;;;;;2068594;28;20305;-57
2021/01/01 03:05:55;;;;;;;59.47;39.00;;;;;;;;;;2076902;28;20208;-58
2021/01/01 03:06:55;;;;;;;55.20;36.77;;;;;;;;;;2072753;28;20165;-57
2021/01/01 03:07:55;;;;;;;56.07;36.27;;;;;;;;;;2081746;28;20188;-57
2021/01/01 03:08:57;;;;;;;57.43;37.57;;;;;;;;;;2074848;28;20176;-54
2021/01/01 03:09:57;;;;;;;59.23;36.93;;;;;;;;;;2071245;28;20700;-57
2021/01/01 03:10:57;;;;;;;60.03;38.13;;;;;;;;;;2089145;28;20202;-59
2021/01/01 03:11:57;;;;;;;56.90;37.70;;;;;;;;;;2085731;28;20180;-57
2021/01/01 03:12:57;;;;;;;58.77;37.50;;;;;;;;;;2086586;28;20189;-56
2021/01/01 03:13:58;;;;;;;58.40;37.83;;;;;;;;;;2089068;28;20168;-57
2021/01/01 03:14:58;;;;;;;62.80;39.73;;;;;;;;;;2076412;28;20586;-57
2021/01/01 03:15:59;;;;;;;60.00;38.10;;;;;;;;;;2079830;28;20207;-57
2021/01/01 03:16:59;;;;;;;60.80;38.23;;;;;;;;;;2075687;28;20180;-57
2021/01/01 03:17:59;;;;;;;57.50;36.83;;;;;;;;;;2072046;28;20173;-57
2021/01/01 03:18:59;;;;;;;62.63;39.80;;;;;;;;;;2080889;28;20165;-58
2021/01/01 03:20:00;;;;;;;62.47;38.10;;;;;;;;;;2088455;28;20197;-57
2021/01/01 03:21:00;;;;;;;64.47;39.50;;;;;;;;;;2077226;28;20179;-56
2021/01/01 03:22:00;;;;;;;57.93;38.43;;;;;;;;;;2083015;28;20212;-56
2021/01/01 03:23:01;;;;;;;58.97;39.77;;;;;;;;;;2086232;28;20213;-54
2021/01/01 03:24:01;;;;;;;61.07;39.17;;;;;;;;;;2088486;28;20455;-59
2021/01/01 03:25:02;;;;;;;58.20;37.97;;;;;;;;;;2076079;28;20191;-58
2021/01/01 03:26:02;;;;;;;63.90;39.63;;;;;;;;;;2078560;28;20215;-60
2021/01/01 03:27:03;;;;;;;62.50;37.63;;;;;;;;;;2084469;28;20241;-57
2021/01/01 03:28:03;;;;;;;60.30;36.67;;;;;;;;;;2087087;28;20194;-56
2021/01/01 03:29:03;;;;;;;58.20;37.43;;;;;;;;;;2077587;28;20184;-56
2021/01/01 03:30:07;;;;;;;60.20;38.03;;;;;;;;;;2077759;28;20185;-59
2021/01/01 03:31:08;;;;;;;66.63;40.27;;;;;;;;;;2084845;28;20192;-57
2021/01/01 03:32:09;;;;;;;60.13;38.80;;;;;;;;;;2088486;28;20424;-57
2021/01/01 03:33:10;;;;;;;62.97;39.07;;;;;;;;;;2082405;28;20224;-57
2021/01/01 03:34:10;;;;;;;62.47;41.13;;;;;;;;;;2084785;28;20423;-58
2021/01/01 03:35:11;;;;;;;63.00;39.57;;;;;;;;;;2077072;28;20192;-55
2021/01/01 03:36:11;;;;;;;64.17;40.90;;;;;;;;;;2072604;28;20307;-58
2021/01/01 03:37:11;;;;;;;65.50;40.83;;;;;;;;;;2067365;28;20336;-57
2021/01/01 03:38:12;;;;;;;66.73;40.20;;;;;;;;;;2077534;28;20246;-57
2021/01/01 03:39:12;;;;;;;69.17;42.93;;;;;;;;;;2077185;28;20215;-56
2021/01/01 03:40:12;;;;;;;70.70;42.23;;;;;;;;;;2085189;28;20180;-58
2021/01/01 03:41:13;;;;;;;69.00;43.20;;;;;;;;;;2065207;28;20649;-57
2021/01/01 03:42:14;;;;;;;67.97;41.70;;;;;;;;;;2067231;28;20230;-58
2021/01/01 03:43:14;;;;;;;67.63;41.77;;;;;;;;;;2065815;28;20527;-60
2021/01/01 03:44:14;;;;;;;71.60;41.47;;;;;;;;;;2076647;28;20216;-57
2021/01/01 03:45:15;;;;;;;71.33;42.00;;;;;;;;;;2078415;28;20259;-58
2021/01/01 03:46:15;;;;;;;70.17;43.57;;;;;;;;;;2075676;28;20299;-59
2021/01/01 03:47:15;;;;;;;72.87;43.73;;;;;;;;;;2082141;28;20183;-57
2021/01/01 03:48:16;;;;;;;69.00;41.97;;;;;;;;;;2076595;28;20172;-59
2021/01/01 03:49:17;;;;;;;71.37;41.50;;;;;;;;;;2080866;28;20181;-57
2021/01/01 03:50:17;;;;;;;71.40;43.93;;;;;;;;;;2078993;28;20640;-56
2021/01/01 03:51:17;;;;;;;76.40;45.40;;;;;;;;;;2075726;28;20224;-59
2021/01/01 03:52:18;;;;;;;73.10;41.70;;;;;;;;;;2077607;28;20538;-58
2021/01/01 03:53:18;;;;;;;72.63;45.67;;;;;;;;;;2074732;28;20213;-59
2021/01/01 03:54:18;;;;;;;77.17;43.27;;;;;;;;;;2071178;28;20275;-59
2021/01/01 03:55:18;;;;;;;75.10;45.37;;;;;;;;;;2072058;28;20185;-59
2021/01/01 03:56:19;;;;;;;77.93;44.33;;;;;;;;;;2078175;28;20223;-57
2021/01/01 03:57:19;;;;;;;73.40;44.83;;;;;;;;;;2089087;28;20535;-58
2021/01/01 03:58:19;;;;;;;76.93;43.30;;;;;;;;;;2083830;28;20585;-59
2021/01/01 03:59:20;;;;;;;73.60;41.67;;;;;;;;;;2085426;28;20679;-57
2021/01/01 04:00:20;;;;;;;72.53;43.33;;;;;;;;;;2075092;28;20614;-57
2021/01/01 04:01:21;;;;;;;72.13;45.13;;;;;;;;;;2080775;28;20255;-59
2021/01/01 04:02:21;;;;;;;70.73;41.90;;;;;;;;;;2070185;28;20184;-57
2021/01/01 04:03:21;;;;;;;71.50;41.43;;;;;;;;;;2067680;28;20192;-59
2021/01/01 04:04:21;;;;;;;70.40;40.63;;;;;;;;;;2084672;28;20245;-58
2021/01/01 04:05:22;;;;;;;62.30;37.53;;;;;;;;;;2079198;28;20178;-54
2021/01/01 04:06:22;;;;;;;61.47;39.10;;;;;;;;;;2075772;28;20326;-55
2021/01/01 04:07:23;;;;;;;67.70;40.13;;;;;;;;;;2076338;28;20679;-59
2021/01/01 04:08:23;;;;;;;65.17;38.20;;;;;;;;;;2070980;28;20627;-57
2021/01/01 04:09:23;;;;;;;61.50;39.30;;;;;;;;;;2051488;28;20218;-55
2021/01/01 04:10:24;;;;;;;66.87;39.70;;;;;;;;;;2064027;28;20264;-58
2021/01/01 04:11:24;;;;;;;65.03;41.47;;;;;;;;;;2066939;28;20196;-58
2021/01/01 04:12:24;;;;;;;72.87;42.33;;;;;;;;;;2061797;28;20225;-58
2021/01/01 04:13:25;;;;;;;67.87;41.50;;;;;;;;;;2062645;28;20181;-57
2021/01/01 04:14:25;;;;;;;70.97;43.47;;;;;;;;;;2073862;28;20180;-59
2021/01/01 04:15:25;;;;;;;68.93;42.33;;;;;;;;;;2070944;28;20260;-58
2021/01/01 04:16:25;;;;;;;69.60;41.27;;;;;;;;;;2061886;28;20978;-59
2021/01/01 04:17:26;;;;;;;64.60;39.40;;;;;;;;;;2070454;28;20642;-57
2021/01/01 04:18:26;;;;;;;70.77;42.17;;;;;;;;;;2076766;28;20258;-59
2021/01/01 04:19:26;;;;;;;72.90;42.50;;;;;;;;;;2074538;28;20236;-57
2021/01/01 04:20:27;;;;;;;67.77;40.27;;;;;;;;;;2070877;28;20180;-57
2021/01/01 04:21:27;;;;;;;60.73;39.10;;;;;;;;;;2065987;28;20535;-56
2021/01/01 04:22:27;;;;;;;68.50;41.00;;;;;;;;;;2078208;28;20311;-59
2021/01/01 04:23:28;;;;;;;64.83;38.33;;;;;;;;;;2073087;28;20577;-59
2021/01/01 04:24:28;;;;;;;63.63;38.63;;;;;;;;;;2063974;28;20184;-60
2021/01/01 04:25:28;;;;;;;64.23;38.20;;;;;;;;;;2068483;28;20178;-57
2021/01/01 04:26:29;;;;;;;61.73;37.97;;;;;;;;;;2070065;28;20246;-57
2021/01/01 04:27:29;;;;;;;61.73;38.87;;;;;;;;;;2065846;28;20180;-58
2021/01/01 04:28:29;;;;;;;62.17;38.37;;;;;;;;;;2069293;28;20569;-57
2021/01/01 04:29:30;;;;;;;62.67;37.90;;;;;;;;;;2062267;28;20181;-58
2021/01/01 04:30:30;;;;;;;61.60;38.10;;;;;;;;;;2070665;28;20177;-57
2021/01/01 04:31:32;;;;;;;70.17;41.93;;;;;;;;;;2081047;28;20176;-56
2021/01/01 04:32:32;;;;;;;70.20;43.20;;;;;;;;;;2072552;28;20177;-59
2021/01/01 04:33:33;;;;;;;74.37;44.63;;;;;;;;;;2069473;28;21025;-57
2021/01/01 04:34:33;;;;;;;72.53;44.00;;;;;;;;;;2066239;28;20182;-57
2021/01/01 04:35:33;;;;;;;75.33;44.37;;;;;;;;;;2063594;28;20181;-58
2021/01/01 04:36:35;;;;;;;74.70;44.30;;;;;;;;;;2057446;28;20305;-57
2021/01/01 04:37:35;;;;;;;81.37;47.37;;;;;;;;;;2063255;28;20260;-57
2021/01/01 04:38:35;;;;;;;76.80;47.43;;;;;;;;;;2073239;28;20428;-56
2021/01/01 04:39:36;;;;;;;72.90;44.60;;;;;;;;;;2089145;28;20620;-57
2021/01/01 04:40:37;;;;;;;79.77;46.63;;;;;;;;;;2089669;28;20184;-57
2021/01/01 04:41:39;;;;;;;79.17;44.77;;;;;;;;;;2079538;28;20575;-57
2021/01/01 04:42:40;;;;;;;84.07;47.20;;;;;;;;;;2072402;28;20228;-55
2021/01/01 04:43:40;;;;;;;92.40;46.37;;;;;;;;;;2072995;28;20955;-58
2021/01/01 04:44:41;;;;;;;88.47;48.00;;;;;;;;;;2073355;28;20161;-57
2021/01/01 04:45:43;;;;;;;83.03;47.53;;;;;;;;;;2073364;28;20179;-59
2021/01/01 04:46:43;;;;;;;93.77;48.30;;;;;;;;;;2081926;28;20196;-59
2021/01/01 04:47:45;;;;;;;81.23;46.17;;;;;;;;;;2081463;28;20451;-57
2021/01/01 04:48:46;;;;;;;93.20;47.33;;;;;;;;;;2076055;28;20234;-59
2021/01/01 04:49:46;;;;;;;77.40;44.23;;;;;;;;;;2072988;28;20399;-58
2021/01/01 04:50:46;;;;;;;77.63;43.07;;;;;;;;;;2073099;28;20169;-56
2021/01/01 04:51:47;;;;;;;69.30;41.53;;;;;;;;;;2080890;28;20255;-57
2021/01/01 04:52:48;;;;;;;76.07;43.60;;;;;;;;;;2072911;28;20223;-54
2021/01/01 04:53:50;;;;;;;74.87;41.73;;;;;;;;;;2068801;28;20185;-57
2021/01/01 04:54:51;;;;;;;77.43;43.10;;;;;;;;;;2070217;28;20926;-59
2021/01/01 04:55:52;;;;;;;71.00;41.17;;;;;;;;;;2080978;28;20487;-55
2021/01/01 04:56:53;;;;;;;70.23;40.57;;;;;;;;;;2074632;28;20453;-57
2021/01/01 04:57:53;;;;;;;70.50;40.77;;;;;;;;;;2081893;28;20417;-56
2021/01/01 04:58:54;;;;;;;74.23;42.33;;;;;;;;;;2074418;28;20641;-55
2021/01/01 04:59:54;;;;;;;72.73;44.60;;;;;;;;;;2066362;28;20631;-59
2021/01/01 05:00:54;;;;;;;80.53;43.50;;;;;;;;;;2066576;28;20192;-57
2021/01/01 05:01:55;;;;;;;77.47;44.17;;;;;;;;;;2071457;28;20811;-56
2021/01/01 05:02:55;;;;;;;78.60;44.37;;;;;;;;;;2073700;28;20231;-57
2021/01/01 05:03:55;;;;;;;76.47;43.40;;;;;;;;;;2072109;28;20169;-56
2021/01/01 05:04:57;;;;;;;78.23;43.93;;;;;;;;;;2079627;28;20180;-56
2021/01/01 05:05:57;;;;;;;74.17;42.57;;;;;;;;;;2079949;28;20196;-55
2021/01/01 05:06:58;;;;;;;86.27;45.20;;;;;;;;;;2073432;28;20942;-59
2021/01/01 05:07:59;;;;;;;81.77;45.07;;;;;;;;;;2064486;28;20624;-56
2021/01/01 05:08:59;;;;;;;87.77;46.00;;;;;;;;;;2072018;28;20165;-55
2021/01/01 05:10:01;;;;;;;83.80;44.73;;;;;;;;;;2075841;28;20216;-59
2021/01/01 05:11:08;;;;;;;79.10;44.83;;;;;;;;;;2078575;28;20545;-56
2021/01/01 05:12:09;;;;;;;82.63;43.07;;;;;;;;;;2085940;28;20835;-58
2021/01/01 05:13:13;;;;;;;79.90;46.53;;;;;;;;;;2074925;28;20439;-56
2021/01/01 05:14:13;;;;;;;77.07;44.43;;;;;;;;;;2070451;28;20180;-58
2021/01/01 05:15:14;;;;;;;75.80;43.67;;;;;;;;;;2078038;28;20418;-57
2021/01/01 05:16:18;;;;;;;79.83;45.30;;;;;;;;;;2073062;28;20290;-57
2021/01/01 05:17:30;;;;;;;79.73;44.40;;;;;;;;;;2078871;28;20719;-56
2021/01/01 05:18:30;;;;;;;76.80;44.87;;;;;;;;;;2083353;28;20421;-55
2021/01/01 05:19:49;;;;;;;81.23;46.23;;;;;;;;;;2076581;28;20450;-56
2021/01/01 05:20:50;;;;;;;77.60;43.47;;;;;;;;;;2073827;28;20165;-58
2021/01/01 05:22:02;;;;;;;82.63;45.90;;;;;;;;;;2077021;28;20398;-56
2021/01/01 05:23:16;;;;;;;83.50;44.70;;;;;;;;;;2087420;28;20830;-56
2021/01/01 05:24:16;;;;;;;80.33;45.67;;;;;;;;;;2086650;28;20424;-56
2021/01/01 05:25:17;;;;;;;91.57;47.47;;;;;;;;;;2082333;28;20421;-55
2021/01/01 05:26:18;;;;;;;76.53;45.03;;;;;;;;;;2081689;28;20208;-60
2021/01/01 05:27:18;;;;;;;81.07;46.90;;;;;;;;;;2091061;28;20419;-57
2021/01/01 05:28:25;;;;;;;88.33;47.73;;;;;;;;;;2088736;28;20539;-57
2021/01/01 05:29:27;;;;;;;90.07;45.80;;;;;;;;;;2083594;28;20175;-58
2021/01/01 05:30:31;;;;;;;81.77;44.37;;;;;;;;;;2084845;28;20435;-56
2021/01/01 05:31:32;;;;;;;80.13;45.53;;;;;;;;;;2086570;28;20901;-58
2021/01/01 05:32:33;;;;;;;80.57;46.40;;;;;;;;;;2075678;28;20458;-58
2021/01/01 05:33:34;;;;;;;78.17;45.30;;;;;;;;;;2075126;28;21042;-60
2021/01/01 05:34:41;;;;;;;76.37;43.77;;;;;;;;;;2083001;28;20425;-60
2021/01/01 05:35:41;;;;;;;76.30;42.57;;;;;;;;;;2073669;28;20177;-56
2021/01/01 05:36:46;;;;;;;72.93;40.73;;;;;;;;;;2099609;22;20662;-59
2021/01/01 05:37:46;;;;;;;69.17;41.20;;;;;;;;;;2104490;28;20506;-60
2021/01/01 05:38:49;;;;;;;71.93;40.50;;;;;;;;;;2100346;28;20415;-59
2021/01/01 05:39:58;;;;;;;73.07;41.13;;;;;;;;;;2106196;28;20889;-57
2021/01/01 05:40:58;;;;;;;75.97;42.17;;;;;;;;;;2099869;28;20417;-57
2021/01/01 05:41:58;;;;;;;73.80;41.03;;;;;;;;;;2104972;28;20417;-60
2021/01/01 05:43:18;;;;;;;76.20;43.43;;;;;;;;;;2091938;28;20197;-58
2021/01/01 05:44:25;;;;;;;71.93;40.53;;;;;;;;;;2098297;28;20195;-59
2021/01/01 05:45:25;;;;;;;70.47;40.30;;;;;;;;;;2097742;28;20441;-59
2021/01/01 05:46:26;;;;;;;76.53;42.80;;;;;;;;;;2101548;28;20411;-59
2021/01/01 05:47:26;;;;;;;71.87;41.17;;;;;;;;;;2103418;28;20198;-58
2021/01/01 05:48:26;;;;;;;75.50;41.27;;;;;;;;;;2098288;28;20203;-58
2021/01/01 05:49:31;;;;;;;69.57;41.37;;;;;;;;;;2105830;28;20189;-59
2021/01/01 05:50:31;;;;;;;75.90;41.20;;;;;;;;;;2106692;28;20288;-59
2021/01/01 05:51:32;;;;;;;70.23;41.93;;;;;;;;;;2112449;28;20485;-59
2021/01/01 05:52:32;;;;;;;69.83;42.97;;;;;;;;;;2106412;28;20179;-59
2021/01/01 05:53:33;;;;;;;76.33;44.30;;;;;;;;;;2110597;28;20186;-62